Terminal Aerodrome Forecast
Issued by NWS

Home | Current Version | Previous Version | Text Only | Print | Product List | Glossary On
Versions: 1 2 3 4 5 6 7 8 9 10 11 12 13 14 15 16 17 18 19 20
000
FTUS43 KIWX 252351
TAFSBN
TAF
KSBN 252351Z 2600/2624 29012KT P6SM SCT025 OVC035
      TEMPO 2600/2602 -SN BKN025
     FM260400 27006KT P6SM BKN035
     FM261000 23006KT P6SM SCT120
     FM261400 21010G18KT P6SM BKN120
     FM261700 21017G27KT P6SM SCT120 BKN200=

USA.gov is the U.S. government's official web portal to all federal, state and local government web resources and services.